createdAt,value
2022-10-31T00:00:59.394Z,11.25
2022-10-31T00:03:27.852Z,11.50
2022-10-31T00:05:54.900Z,10.07
2022-10-31T00:08:22.742Z,10.80
2022-10-31T00:10:49.532Z,8.88
2022-10-31T00:13:16.559Z,12.30
2022-10-31T00:15:43.577Z,8.30
2022-10-31T00:18:10.989Z,14.27
2022-10-31T00:20:39.610Z,11.32
2022-10-31T00:23:07.372Z,14.10
2022-10-31T00:25:36.196Z,15.82
2022-10-31T00:28:03.417Z,14.95
2022-10-31T00:30:30.593Z,17.42
2022-10-31T00:32:57.934Z,15.10
2022-10-31T00:35:25.094Z,19.17
2022-10-31T00:37:53.810Z,15.07
2022-10-31T00:40:20.769Z,13.73
2022-10-31T00:42:47.680Z,17.38
2022-10-31T00:45:14.951Z,15.50
2022-10-31T00:47:41.980Z,16.05
2022-10-31T00:50:09.628Z,16.30
2022-10-31T00:52:36.708Z,14.32
2022-10-31T00:55:05.559Z,17.05
2022-10-31T00:57:32.616Z,17.50
2022-10-31T00:59:59.837Z,18.88
2022-10-31T01:02:27.168Z,15.68
2022-10-31T01:04:54.333Z,16.88
2022-10-31T01:07:21.416Z,21.83
2022-10-31T01:09:48.704Z,14.00
2022-10-31T01:12:19.485Z,13.63
2022-10-31T01:14:46.575Z,18.30
2022-10-31T01:17:14.409Z,16.35
2022-10-31T01:19:41.625Z,16.35
2022-10-31T01:22:08.682Z,16.90
2022-10-31T01:24:35.846Z,14.80
2022-10-31T01:27:03.294Z,15.25
2022-10-31T01:29:31.766Z,13.00
2022-10-31T01:31:58.850Z,11.25
2022-10-31T01:34:25.765Z,11.05
2022-10-31T01:36:53.024Z,11.85
2022-10-31T01:39:20.476Z,10.10
2022-10-31T01:41:51.290Z,10.90
2022-10-31T01:44:57.916Z,11.07
2022-10-31T01:47:37.945Z,9.95
2022-10-31T01:50:11.372Z,9.80
2022-10-31T01:52:41.584Z,11.93
2022-10-31T01:55:14.446Z,14.05
2022-10-31T01:57:45.480Z,12.02
2022-10-31T02:00:16.025Z,10.75
2022-10-31T02:02:44.015Z,11.55
2022-10-31T02:05:15.486Z,14.20
2022-10-31T02:07:46.799Z,14.63
2022-10-31T02:10:13.855Z,14.52
2022-10-31T02:12:42.332Z,16.17
2022-10-31T02:15:10.899Z,13.95
2022-10-31T02:17:39.311Z,14.55
2022-10-31T02:20:16.145Z,22.27
2022-10-31T02:23:12.773Z,12.90
2022-10-31T02:26:01.316Z,12.63
2022-10-31T02:28:41.722Z,13.75
2022-10-31T02:31:19.906Z,16.17
2022-10-31T02:33:52.045Z,16.33
2022-10-31T02:36:26.169Z,12.75
2022-10-31T02:39:03.363Z,16.55
2022-10-31T02:41:38.155Z,14.32
2022-10-31T02:44:13.367Z,13.35
2022-10-31T02:46:48.728Z,12.65
2022-10-31T02:49:28.032Z,11.10
2022-10-31T02:51:55.193Z,14.05
2022-10-31T02:54:24.602Z,15.27
2022-10-31T02:56:54.152Z,18.02
2022-10-31T02:59:23.290Z,17.50
2022-10-31T03:02:16.661Z,9.27
2022-10-31T03:05:18.977Z,13.63
2022-10-31T03:07:54.773Z,18.73
2022-10-31T03:10:28.071Z,20.33
2022-10-31T03:13:05.006Z,16.63
2022-10-31T03:15:34.757Z,13.98
2022-10-31T03:18:08.202Z,14.70
2022-10-31T03:20:40.003Z,15.35
2022-10-31T03:23:08.925Z,19.80
2022-10-31T03:25:37.481Z,12.25
2022-10-31T03:28:07.028Z,16.80
2022-10-31T03:30:37.367Z,13.82
2022-10-31T03:33:09.167Z,13.10
2022-10-31T03:35:37.695Z,12.45
2022-10-31T03:38:07.887Z,12.23
2022-10-31T03:40:37.964Z,12.35
2022-10-31T03:43:10.115Z,13.30
2022-10-31T03:45:42.228Z,14.18
2022-10-31T03:48:11.204Z,11.63
2022-10-31T03:50:45.750Z,12.15
2022-10-31T03:53:18.320Z,12.65
2022-10-31T03:55:52.343Z,16.25
2022-10-31T03:58:24.878Z,12.82
2022-10-31T04:00:55.638Z,13.05
2022-10-31T04:03:27.555Z,18.70
2022-10-31T04:05:58.116Z,13.75
2022-10-31T04:08:29.153Z,16.70
2022-10-31T04:10:58.756Z,13.43
2022-10-31T04:13:29.671Z,15.18
2022-10-31T04:15:57.577Z,16.15
2022-10-31T04:18:26.665Z,15.88
2022-10-31T04:21:02.226Z,16.00
2022-10-31T04:23:30.325Z,18.75
2022-10-31T04:25:57.328Z,21.60
2022-10-31T04:28:24.316Z,17.63
2022-10-31T04:30:51.390Z,18.55
2022-10-31T04:33:18.550Z,15.80
2022-10-31T04:35:47.160Z,20.52
2022-10-31T04:38:14.411Z,13.77
2022-10-31T04:40:41.387Z,14.85
2022-10-31T04:43:08.498Z,13.68
2022-10-31T04:45:35.407Z,11.98
2022-10-31T04:48:03.089Z,12.20
2022-10-31T04:50:30.717Z,13.27
2022-10-31T04:52:59.237Z,10.40
2022-10-31T04:55:27.199Z,11.60
2022-10-31T04:57:54.128Z,10.25
2022-10-31T05:00:23.140Z,10.68
2022-10-31T05:02:52.076Z,10.48
2022-10-31T05:05:21.516Z,12.60
2022-10-31T05:07:49.463Z,11.88
2022-10-31T05:10:19.620Z,11.23
2022-10-31T05:12:47.108Z,10.63
2022-10-31T05:15:14.829Z,11.70
2022-10-31T05:17:41.795Z,10.45
2022-10-31T05:20:10.285Z,10.45
2022-10-31T05:22:37.420Z,13.07
2022-10-31T05:25:05.072Z,11.27
2022-10-31T05:27:33.543Z,11.68
2022-10-31T05:32:38.620Z,10.93
2022-10-31T05:35:06.854Z,12.05
2022-10-31T05:37:34.190Z,11.40
2022-10-31T05:40:06.935Z,11.02
2022-10-31T05:42:38.287Z,12.48
2022-10-31T05:45:06.790Z,14.05
2022-10-31T05:47:33.699Z,13.05
2022-10-31T05:50:00.960Z,12.00
2022-10-31T05:52:28.141Z,14.55
2022-10-31T05:54:54.977Z,14.02
2022-10-31T05:57:22.685Z,16.38
2022-10-31T05:59:54.911Z,16.00
2022-10-31T06:02:22.471Z,15.98
2022-10-31T06:04:49.477Z,17.80
2022-10-31T06:07:16.424Z,15.30
2022-10-31T06:09:43.434Z,15.02
2022-10-31T06:12:10.620Z,18.77
2022-10-31T06:14:37.556Z,18.70
2022-10-31T06:17:06.086Z,17.02
2022-10-31T06:19:33.267Z,17.25
2022-10-31T06:22:00.312Z,18.52
2022-10-31T06:24:27.236Z,17.33
2022-10-31T06:26:55.845Z,16.50
2022-10-31T06:29:23.052Z,16.90
2022-10-31T06:31:52.496Z,21.13
2022-10-31T06:34:21.034Z,17.65
2022-10-31T06:36:48.218Z,16.92
2022-10-31T06:39:15.579Z,19.75
2022-10-31T06:41:42.970Z,19.48
2022-10-31T06:44:10.294Z,18.85
2022-10-31T06:46:37.241Z,17.42
2022-10-31T06:49:04.202Z,19.13
2022-10-31T06:51:32.870Z,19.10
2022-10-31T06:53:59.774Z,19.17
2022-10-31T06:56:26.658Z,20.98
2022-10-31T06:58:53.750Z,17.85
2022-10-31T07:01:20.969Z,18.70
2022-10-31T07:03:47.950Z,19.33
2022-10-31T07:06:14.915Z,15.23
2022-10-31T07:08:43.334Z,16.35
2022-10-31T07:11:10.489Z,18.25
2022-10-31T07:13:37.559Z,15.43
2022-10-31T07:16:06.116Z,14.88
2022-10-31T07:18:33.512Z,12.60
2022-10-31T07:21:00.427Z,11.90
2022-10-31T07:23:27.521Z,11.88
2022-10-31T07:25:58.259Z,11.90
2022-10-31T07:28:25.833Z,19.47
2022-10-31T07:30:53.294Z,12.38
2022-10-31T07:33:23.764Z,13.25
2022-10-31T07:35:50.854Z,11.88
2022-10-31T07:38:19.759Z,12.68
2022-10-31T07:40:53.386Z,13.88
2022-10-31T07:43:22.167Z,14.25
2022-10-31T07:45:56.485Z,15.00
2022-10-31T07:48:23.562Z,12.63
2022-10-31T07:50:50.470Z,11.00
2022-10-31T07:53:17.532Z,12.50
2022-10-31T07:55:44.933Z,12.00
2022-10-31T07:58:13.280Z,15.93
2022-10-31T08:00:43.896Z,14.88
2022-10-31T08:03:12.965Z,13.10
2022-10-31T08:05:40.377Z,12.83
2022-10-31T08:08:07.581Z,13.38
2022-10-31T08:10:37.088Z,11.77
2022-10-31T08:13:06.247Z,14.88
2022-10-31T08:15:34.156Z,15.43
2022-10-31T08:18:02.957Z,12.30
2022-10-31T08:20:37.251Z,13.98
2022-10-31T08:23:06.238Z,14.48
2022-10-31T08:25:38.255Z,13.00
2022-10-31T08:28:06.808Z,13.85
2022-10-31T08:30:35.859Z,14.70
2022-10-31T08:33:06.060Z,13.90
2022-10-31T08:35:33.704Z,12.32
2022-10-31T08:38:01.677Z,12.75
2022-10-31T08:40:30.617Z,10.95
2022-10-31T08:43:00.227Z,14.03
2022-10-31T08:45:34.313Z,14.75
2022-10-31T08:48:02.960Z,12.55
2022-10-31T08:50:33.265Z,8.93
2022-10-31T08:53:05.606Z,15.98
2022-10-31T08:55:34.251Z,11.80
2022-10-31T08:58:01.431Z,10.48
2022-10-31T09:00:28.688Z,11.30
2022-10-31T09:02:59.033Z,12.48
2022-10-31T09:05:26.249Z,13.60
2022-10-31T09:07:56.831Z,10.53
2022-10-31T09:10:23.942Z,12.57
2022-10-31T09:12:59.191Z,25.38
2022-10-31T09:15:34.647Z,22.58
2022-10-31T09:18:01.842Z,24.25
2022-10-31T09:20:29.155Z,13.48
2022-10-31T09:23:02.737Z,12.55
2022-10-31T09:25:30.402Z,10.20
2022-10-31T09:27:58.352Z,12.90
2022-10-31T09:30:27.771Z,12.38
2022-10-31T09:32:58.392Z,13.77
2022-10-31T09:35:26.079Z,12.40
2022-10-31T09:37:56.690Z,11.88
2022-10-31T09:40:30.871Z,11.95
2022-10-31T09:43:06.303Z,11.60
2022-10-31T09:45:38.753Z,11.00
2022-10-31T09:48:18.489Z,9.77
2022-10-31T09:50:48.681Z,9.57
2022-10-31T09:53:24.753Z,12.65
2022-10-31T09:55:54.443Z,13.48
2022-10-31T09:58:34.151Z,11.10
2022-10-31T10:01:05.416Z,12.45
2022-10-31T10:03:37.085Z,12.52
2022-10-31T10:06:13.352Z,13.73
2022-10-31T10:08:40.520Z,13.30
2022-10-31T10:11:27.071Z,11.37
2022-10-31T10:14:12.937Z,15.05
2022-10-31T10:16:54.699Z,12.50
2022-10-31T10:19:38.318Z,10.90
2022-10-31T10:22:12.542Z,11.80
2022-10-31T10:24:56.832Z,11.63
2022-10-31T10:27:35.220Z,13.07
2022-10-31T10:30:05.920Z,15.43
2022-10-31T10:32:46.586Z,13.18
2022-10-31T10:35:23.676Z,15.20
2022-10-31T10:37:54.160Z,11.30
2022-10-31T10:40:24.610Z,13.63
2022-10-31T10:43:00.601Z,13.40
2022-10-31T10:45:27.676Z,13.98
2022-10-31T10:48:01.358Z,12.63
2022-10-31T10:50:33.345Z,11.37
2022-10-31T10:53:06.428Z,11.68
2022-10-31T10:55:41.859Z,13.45
2022-10-31T10:58:11.651Z,13.55
2022-10-31T11:00:41.785Z,14.15
2022-10-31T11:03:09.615Z,13.47
2022-10-31T11:05:40.464Z,11.65
2022-10-31T11:08:08.253Z,12.55
2022-10-31T11:10:36.399Z,13.48
2022-10-31T11:13:21.395Z,16.25
2022-10-31T11:15:56.641Z,12.73
2022-10-31T11:18:26.656Z,12.65
2022-10-31T11:20:55.347Z,13.43
2022-10-31T11:23:23.779Z,17.10
2022-10-31T11:25:54.143Z,12.02
2022-10-31T11:28:22.744Z,13.13
2022-10-31T11:30:53.459Z,13.10
2022-10-31T11:33:26.203Z,12.98
2022-10-31T11:35:57.100Z,13.35
2022-10-31T11:38:29.525Z,13.65
2022-10-31T11:41:00.860Z,16.73
2022-10-31T11:43:29.164Z,14.00
2022-10-31T11:45:56.411Z,18.52
2022-10-31T11:48:25.748Z,15.95
2022-10-31T11:50:55.650Z,13.85
2022-10-31T11:53:36.173Z,14.70
2022-10-31T11:56:07.797Z,14.02
2022-10-31T11:58:35.964Z,15.73
2022-10-31T12:01:03.193Z,16.15
2022-10-31T12:03:50.403Z,18.15
2022-10-31T12:06:22.980Z,14.57
2022-10-31T12:08:50.389Z,15.93
2022-10-31T12:11:32.691Z,13.90
2022-10-31T12:14:13.290Z,13.68
2022-10-31T12:16:47.620Z,16.27
2022-10-31T12:19:26.079Z,12.93
2022-10-31T12:22:27.271Z,15.05
2022-10-31T12:25:05.321Z,15.63
2022-10-31T12:27:52.807Z,12.93
2022-10-31T12:30:28.404Z,12.65
2022-10-31T12:33:19.849Z,14.50
2022-10-31T12:35:54.058Z,14.18
2022-10-31T12:38:36.296Z,14.38
2022-10-31T12:41:21.334Z,14.77
2022-10-31T12:43:55.924Z,15.63
2022-10-31T12:46:35.052Z,13.70
2022-10-31T12:49:25.436Z,13.90
2022-10-31T12:52:04.573Z,14.55
2022-10-31T12:54:49.904Z,13.27
2022-10-31T12:57:24.981Z,15.90
2022-10-31T12:59:56.075Z,13.83
2022-10-31T13:02:29.654Z,15.10
2022-10-31T13:05:04.185Z,14.05
2022-10-31T13:07:35.624Z,17.10
2022-10-31T13:10:09.212Z,14.93
2022-10-31T13:12:37.718Z,14.77
2022-10-31T13:15:13.966Z,13.32
2022-10-31T13:17:46.458Z,14.95
2022-10-31T13:20:23.734Z,16.17
2022-10-31T13:22:54.520Z,14.88
2022-10-31T13:25:26.198Z,15.67
2022-10-31T13:27:58.223Z,15.90
2022-10-31T13:30:34.257Z,15.18
2022-10-31T13:33:07.437Z,14.32
2022-10-31T13:35:42.376Z,16.90
2022-10-31T13:38:19.632Z,14.40
2022-10-31T13:40:53.295Z,18.17
2022-10-31T13:43:29.906Z,17.45
2022-10-31T13:45:57.520Z,16.75
2022-10-31T13:48:39.298Z,16.70
2022-10-31T13:51:07.838Z,16.10
2022-10-31T13:53:44.383Z,16.52
2022-10-31T13:56:17.534Z,16.55
2022-10-31T13:58:59.837Z,16.10
2022-10-31T14:01:27.094Z,18.52
2022-10-31T14:04:12.212Z,16.73
2022-10-31T14:06:45.118Z,14.57
2022-10-31T14:09:26.508Z,17.13
2022-10-31T14:11:54.176Z,15.55
2022-10-31T14:14:23.580Z,18.42
2022-10-31T14:16:56.564Z,16.93
2022-10-31T14:19:25.873Z,15.95
2022-10-31T14:21:52.973Z,18.17
2022-10-31T14:24:35.621Z,15.57
2022-10-31T14:27:04.800Z,19.08
2022-10-31T14:29:32.709Z,18.07
2022-10-31T14:32:08.086Z,17.52
2022-10-31T14:34:42.449Z,17.05
2022-10-31T14:37:39.071Z,18.70
2022-10-31T14:40:23.973Z,18.30
2022-10-31T14:43:18.458Z,17.60
2022-10-31T14:45:55.017Z,16.08
2022-10-31T14:48:50.342Z,17.67
2022-10-31T14:51:21.270Z,15.15
2022-10-31T14:53:50.577Z,14.25
2022-10-31T14:56:23.080Z,16.07
2022-10-31T14:58:50.904Z,15.57
2022-10-31T15:01:25.902Z,16.15
2022-10-31T15:04:21.963Z,14.93
2022-10-31T15:06:44.103Z,16.52
2022-10-31T15:09:23.294Z,13.03
2022-10-31T15:11:50.341Z,13.00
2022-10-31T15:14:25.771Z,19.45
2022-10-31T15:16:52.829Z,14.80
2022-10-31T15:19:24.195Z,17.38
2022-10-31T15:21:54.742Z,14.43
2022-10-31T15:24:24.580Z,14.10
2022-10-31T15:26:54.146Z,18.73
2022-10-31T15:29:23.436Z,16.08
2022-10-31T15:31:51.328Z,17.88
2022-10-31T15:34:26.809Z,18.50
2022-10-31T15:36:55.156Z,19.63
2022-10-31T15:39:22.184Z,19.67
2022-10-31T15:41:54.490Z,16.23
2022-10-31T15:44:25.795Z,16.00
2022-10-31T15:46:55.212Z,18.77
2022-10-31T15:49:32.901Z,18.50
2022-10-31T15:52:13.104Z,16.65
2022-10-31T15:54:46.894Z,18.08
2022-10-31T15:57:14.189Z,19.38
2022-10-31T15:59:43.781Z,18.17
2022-10-31T16:02:13.023Z,19.50
2022-10-31T16:04:50.437Z,16.95
2022-10-31T16:07:23.145Z,17.95
2022-10-31T16:09:56.522Z,18.75
2022-10-31T16:12:25.923Z,22.00
2022-10-31T16:14:58.264Z,21.92
2022-10-31T16:17:28.467Z,27.95
2022-10-31T16:19:59.192Z,24.85
2022-10-31T16:22:30.089Z,23.63
2022-10-31T16:25:02.089Z,24.97
2022-10-31T16:27:35.389Z,26.23
2022-10-31T16:30:05.667Z,24.00
2022-10-31T16:32:35.753Z,23.58
2022-10-31T16:35:18.813Z,19.33
2022-10-31T16:37:47.134Z,22.20
2022-10-31T16:40:15.794Z,18.33
2022-10-31T16:42:44.442Z,19.33
2022-10-31T16:45:17.742Z,20.90
2022-10-31T16:47:44.650Z,19.75
2022-10-31T16:50:17.052Z,26.67
2022-10-31T16:53:01.031Z,27.15
2022-10-31T16:55:33.062Z,37.30
2022-10-31T16:58:00.454Z,50.50
2022-10-31T17:00:28.581Z,35.65
2022-10-31T17:02:59.194Z,30.40
2022-10-31T17:05:26.654Z,31.98
2022-10-31T17:07:54.003Z,30.55
2022-10-31T17:10:21.064Z,34.60
2022-10-31T17:12:50.462Z,50.17
2022-10-31T17:15:21.287Z,43.73
2022-10-31T17:17:48.311Z,41.15
2022-10-31T17:20:22.482Z,40.58
2022-10-31T17:22:49.369Z,44.03
2022-10-31T17:25:19.359Z,40.40
2022-10-31T17:27:47.418Z,36.73
2022-10-31T17:30:16.671Z,30.15
2022-10-31T17:32:43.781Z,30.90
2022-10-31T17:35:11.602Z,38.05
2022-10-31T17:37:39.184Z,38.65
2022-10-31T17:40:11.645Z,40.73
2022-10-31T17:42:38.925Z,37.20
2022-10-31T17:45:07.576Z,34.40
2022-10-31T17:47:36.329Z,31.83
2022-10-31T17:50:03.463Z,41.88
2022-10-31T17:52:30.351Z,33.00
2022-10-31T17:54:57.524Z,29.60
2022-10-31T17:57:24.450Z,29.05
2022-10-31T17:59:52.190Z,19.42
2022-10-31T18:02:19.280Z,21.23
2022-10-31T18:04:47.796Z,19.52
2022-10-31T18:07:14.891Z,21.45
2022-10-31T18:09:41.770Z,25.02
2022-10-31T18:12:08.881Z,17.38
2022-10-31T18:14:35.812Z,20.35
2022-10-31T18:17:03.125Z,19.98
2022-10-31T18:19:30.416Z,21.52
2022-10-31T18:21:59.015Z,20.27
2022-10-31T18:24:26.075Z,18.67
2022-10-31T18:26:52.964Z,16.75
2022-10-31T18:29:20.041Z,17.40
2022-10-31T18:31:46.895Z,18.38
2022-10-31T18:34:14.052Z,16.70
2022-10-31T18:36:41.090Z,17.15
2022-10-31T18:39:10.362Z,17.83
2022-10-31T18:41:37.833Z,20.48
2022-10-31T18:44:05.459Z,21.23
2022-10-31T18:46:36.398Z,46.78
2022-10-31T18:49:05.217Z,39.17
2022-10-31T18:51:32.239Z,47.70
2022-10-31T18:54:00.540Z,39.78
2022-10-31T18:56:30.118Z,35.20
2022-10-31T18:58:58.807Z,37.22
2022-10-31T19:01:26.049Z,35.42
2022-10-31T19:03:54.113Z,34.03
2022-10-31T19:06:21.000Z,50.17
2022-10-31T19:08:47.956Z,33.45
2022-10-31T19:11:15.512Z,27.60
2022-10-31T19:13:43.746Z,28.55
2022-10-31T19:16:12.880Z,48.97
2022-10-31T19:18:41.765Z,30.10
2022-10-31T19:21:10.867Z,30.50
2022-10-31T19:23:38.090Z,29.92
2022-10-31T19:26:05.452Z,55.40
2022-10-31T19:28:33.398Z,45.55
2022-10-31T19:31:01.773Z,28.75
2022-10-31T19:33:33.385Z,26.50
2022-10-31T19:36:05.595Z,41.17
2022-10-31T19:38:34.322Z,30.77
2022-10-31T19:41:03.430Z,26.60
2022-10-31T19:43:30.630Z,27.65
2022-10-31T19:45:59.004Z,26.38
2022-10-31T19:48:28.084Z,30.02
2022-10-31T19:51:00.887Z,27.60
2022-10-31T19:53:29.242Z,25.38
2022-10-31T19:55:56.342Z,28.52
2022-10-31T19:58:23.400Z,67.70
2022-10-31T20:00:50.472Z,45.95
2022-10-31T20:03:21.488Z,38.95
2022-10-31T20:05:51.402Z,34.40
2022-10-31T20:08:21.372Z,32.13
2022-10-31T20:10:55.056Z,36.65
2022-10-31T20:13:22.458Z,39.88
2022-10-31T20:15:49.611Z,42.50
2022-10-31T20:18:16.667Z,44.22
2022-10-31T20:20:44.096Z,53.78
2022-10-31T20:23:12.435Z,54.65
2022-10-31T20:25:47.490Z,49.97
2022-10-31T20:28:14.486Z,56.53
2022-10-31T20:30:41.665Z,60.33
2022-10-31T20:33:08.676Z,39.58
2022-10-31T20:35:36.934Z,46.70
2022-10-31T20:38:04.370Z,45.60
2022-10-31T20:40:33.388Z,51.80
2022-10-31T20:43:01.076Z,33.65
2022-10-31T20:45:31.716Z,31.73
2022-10-31T20:47:59.183Z,32.75
2022-10-31T20:50:26.828Z,37.65
2022-10-31T20:52:53.755Z,41.80
2022-10-31T20:55:20.990Z,48.38
2022-10-31T20:57:50.822Z,53.58
2022-10-31T21:00:18.716Z,50.97
2022-10-31T21:02:46.246Z,47.88
2022-10-31T21:05:13.377Z,48.72
2022-10-31T21:07:41.338Z,54.47
2022-10-31T21:10:10.037Z,47.33
2022-10-31T21:12:39.965Z,51.95
2022-10-31T21:15:10.226Z,39.83
2022-10-31T21:17:37.695Z,32.38
2022-10-31T21:20:05.703Z,30.48
2022-10-31T21:22:33.098Z,27.10
2022-10-31T21:25:00.201Z,33.58
2022-10-31T21:27:27.935Z,28.35
2022-10-31T21:29:55.333Z,29.15
2022-10-31T21:32:23.705Z,27.25
2022-10-31T21:34:50.703Z,34.80
2022-10-31T21:37:22.181Z,35.40
2022-10-31T21:39:50.984Z,29.95
2022-10-31T21:42:21.364Z,33.90
2022-10-31T21:44:48.926Z,36.38
2022-10-31T21:47:15.927Z,34.42
2022-10-31T21:49:50.793Z,34.08
2022-10-31T21:52:17.778Z,31.55
2022-10-31T21:54:44.980Z,31.02
2022-10-31T21:57:12.262Z,32.95
2022-10-31T21:59:39.867Z,32.70
2022-10-31T22:02:09.175Z,33.42
2022-10-31T22:04:36.067Z,32.65
2022-10-31T22:07:04.568Z,35.42
2022-10-31T22:09:31.490Z,32.05
2022-10-31T22:11:58.308Z,38.55
2022-10-31T22:14:25.943Z,45.35
2022-10-31T22:16:52.833Z,44.03
2022-10-31T22:19:19.781Z,43.45
2022-10-31T22:21:47.789Z,44.55
2022-10-31T22:24:16.994Z,36.67
2022-10-31T22:26:44.857Z,43.67
2022-10-31T22:29:14.230Z,43.83
2022-10-31T22:31:42.682Z,41.92
2022-10-31T22:34:10.387Z,41.90
2022-10-31T22:36:40.616Z,46.88
2022-10-31T22:39:08.359Z,39.45
2022-10-31T22:41:37.454Z,39.00
2022-10-31T22:44:05.047Z,39.72
2022-10-31T22:46:33.959Z,39.53
2022-10-31T22:49:02.946Z,36.45
2022-10-31T22:51:33.342Z,39.25
2022-10-31T22:54:00.802Z,42.72
2022-10-31T22:56:30.941Z,38.72
2022-10-31T22:59:00.283Z,37.10
2022-10-31T23:01:30.145Z,62.53
2022-10-31T23:03:57.299Z,52.88
2022-10-31T23:06:27.186Z,51.50
2022-10-31T23:08:55.123Z,31.67
2022-10-31T23:11:23.616Z,36.60
2022-10-31T23:13:52.595Z,36.88
2022-10-31T23:16:21.202Z,37.50
2022-10-31T23:18:50.581Z,36.28
2022-10-31T23:21:21.925Z,38.67
2022-10-31T23:23:49.025Z,35.08
2022-10-31T23:26:15.879Z,34.30
2022-10-31T23:28:42.629Z,37.42
2022-10-31T23:31:09.631Z,35.15
2022-10-31T23:33:38.148Z,33.50
2022-10-31T23:36:05.786Z,33.72
2022-10-31T23:38:32.642Z,36.38
2022-10-31T23:40:59.709Z,31.27
2022-10-31T23:43:26.717Z,33.72
2022-10-31T23:45:53.538Z,30.50
2022-10-31T23:48:20.516Z,33.33
2022-10-31T23:50:48.841Z,28.73
2022-10-31T23:53:15.912Z,28.90
2022-10-31T23:55:42.820Z,28.95
2022-10-31T23:58:09.781Z,27.10
